地図

経路データ

SID SEASON NUMBER BASIN SUBBASIN NAME ISO_TIME NATURE LAT LON WMO_WIND WMO_PRES WMO_AGENCY TRACK_TYPE DIST2LAND LANDFALL IFLAG USA_AGENCY USA_ATCF_ID USA_LAT USA_LON USA_RECORD USA_STATUS USA_WIND USA_PRES USA_SSHS USA_R34_NE USA_R34_SE USA_R34_SW USA_R34_NW USA_R50_NE USA_R50_SE USA_R50_SW USA_R50_NW USA_R64_NE USA_R64_SE USA_R64_SW USA_R64_NW USA_POCI USA_ROCI USA_RMW USA_EYE TOKYO_LAT TOKYO_LON TOKYO_GRADE TOKYO_WIND TOKYO_PRES TOKYO_R50_DIR TOKYO_R50_LONG TOKYO_R50_SHORT TOKYO_R30_DIR TOKYO_R30_LONG TOKYO_R30_SHORT TOKYO_LAND CMA_LAT CMA_LON CMA_CAT CMA_WIND CMA_PRES HKO_LAT HKO_LON HKO_CAT HKO_WIND HKO_PRES NEWDELHI_LAT NEWDELHI_LON NEWDELHI_GRADE NEWDELHI_WIND NEWDELHI_PRES NEWDELHI_CI NEWDELHI_DP NEWDELHI_POCI REUNION_LAT REUNION_LON REUNION_TYPE REUNION_WIND REUNION_PRES REUNION_TNUM REUNION_CI REUNION_RMW REUNION_R34_NE REUNION_R34_SE REUNION_R34_SW REUNION_R34_NW REUNION_R50_NE REUNION_R50_SE REUNION_R50_SW REUNION_R50_NW REUNION_R64_NE REUNION_R64_SE REUNION_R64_SW REUNION_R64_NW BOM_LAT BOM_LON BOM_TYPE BOM_WIND BOM_PRES BOM_TNUM BOM_CI BOM_RMW BOM_R34_NE BOM_R34_SE BOM_R34_SW BOM_R34_NW BOM_R50_NE BOM_R50_SE BOM_R50_SW BOM_R50_NW BOM_R64_NE BOM_R64_SE BOM_R64_SW BOM_R64_NW BOM_ROCI BOM_POCI BOM_EYE BOM_POS_METHOD BOM_PRES_METHOD NADI_LAT NADI_LON NADI_CAT NADI_WIND NADI_PRES WELLINGTON_LAT WELLINGTON_LON WELLINGTON_WIND WELLINGTON_PRES DS824_LAT DS824_LON DS824_STAGE DS824_WIND DS824_PRES TD9636_LAT TD9636_LON TD9636_STAGE TD9636_WIND TD9636_PRES TD9635_LAT TD9635_LON TD9635_WIND TD9635_PRES TD9635_ROCI NEUMANN_LAT NEUMANN_LON NEUMANN_CLASS NEUMANN_WIND NEUMANN_PRES MLC_LAT MLC_LON MLC_CLASS MLC_WIND MLC_PRES USA_GUST BOM_GUST BOM_GUST_PER REUNION_GUST REUNION_GUST_PER USA_SEAHGT USA_SEARAD_NE USA_SEARAD_SE USA_SEARAD_SW USA_SEARAD_NW STORM_SPEED STORM_DIR
1996306N15097 1996 107 NI BB NOT_NAMED 1996-11-01 00:00:00 NR 15.0000 97.3000 main 53 53 O_____________ jtwc_io IO071996 15.0000 97.3000 15 -1 12 314
1996306N15097 1996 107 NI BB NOT_NAMED 1996-11-01 03:00:00 NR 15.4028 96.8631 main 86 79 P_____________ IO071996 15.4028 96.8631 15 -1 10 312
1996306N15097 1996 107 NI BB NOT_NAMED 1996-11-01 06:00:00 NR 15.7000 96.5000 main 79 59 O_____________ jtwc_io IO071996 15.7000 96.5000 15 -1 7 306
1996306N15097 1996 107 NI BB NOT_NAMED 1996-11-01 09:00:00 NR 15.8298 96.2497 main 54 30 P_____________ IO071996 15.8298 96.2497 15 -1 5 293
1996306N15097 1996 107 NI BB NOT_NAMED 1996-11-01 12:00:00 NR 15.9000 96.0000 main 30 0 O_____________ jtwc_io IO071996 15.9000 96.0000 15 -1 6 290
1996306N15097 1996 107 NI BB NOT_NAMED 1996-11-01 15:00:00 NR 16.0500 95.6301 main 0 0 P_____________ IO071996 16.0500 95.6301 15 -1 8 291
1996306N15097 1996 107 NI BB NOT_NAMED 1996-11-01 18:00:00 NR 16.2000 95.2000 main 0 0 O_____________ jtwc_io IO071996 16.2000 95.2000 15 -1 9 288
1996306N15097 1996 107 NI BB NOT_NAMED 1996-11-01 21:00:00 NR 16.3225 94.7500 main 0 0 P_____________ IO071996 16.3225 94.7500 15 -1 9 283
1996306N15097 1996 107 NI BB NOT_NAMED 1996-11-02 00:00:00 NR 16.4000 94.3000 main 0 0 O_____________ jtwc_io IO071996 16.4000 94.3000 15 -1 8 276
1996306N15097 1996 107 NI BB NOT_NAMED 1996-11-02 03:00:00 NR 16.4150 93.8774 main 42 42 P_____________ IO071996 16.4150 93.8774 15 -1 8 270
1996306N15097 1996 107 NI BB NOT_NAMED 1996-11-02 06:00:00 NR 16.4000 93.5000 main 85 85 O_____________ jtwc_io IO071996 16.4000 93.5000 15 -1 7 270
1996306N15097 1996 107 NI BB NOT_NAMED 1996-11-02 09:00:00 NR 16.4148 93.2001 main 115 115 P_____________ IO071996 16.4148 93.2001 15 -1 6 270
1996306N15097 1996 107 NI BB NOT_NAMED 1996-11-02 12:00:00 NR 16.4000 92.9000 main 145 145 O_____________ jtwc_io IO071996 16.4000 92.9000 15 -1 7 261
1996306N15097 1996 107 NI BB NOT_NAMED 1996-11-02 15:00:00 NR 16.3075 92.5074 main 184 184 P_____________ IO071996 16.3075 92.5074 15 -1 8 255
1996306N15097 1996 107 NI BB NOT_NAMED 1996-11-02 18:00:00 NR 16.2000 92.1000 main 225 225 O_____________ jtwc_io IO071996 16.2000 92.1000 15 -1 8 257
1996306N15097 1996 107 NI BB NOT_NAMED 1996-11-02 21:00:00 NR 16.1424 91.7351 main 267 267 P_____________ IO071996 16.1424 91.7351 17 -1 7 262
1996306N15097 1996 107 NI BB NOT_NAMED 1996-11-03 00:00:00 NR 16.1000 91.4000 main 299 299 O_____________ jtwc_io IO071996 16.1000 91.4000 20 -1 6 261
1996306N15097 1996 107 NI BB NOT_NAMED 1996-11-03 03:00:00 NR 16.0424 91.0925 main 331 331 P_____________ IO071996 16.0424 91.0925 20 -1 6 260
1996306N15097 1996 107 NI BB NOT_NAMED 1996-11-03 06:00:00 NR 16.0000 90.8000 main 363 363 O_____________ jtwc_io IO071996 16.0000 90.8000 20 -1 6 265
1996306N15097 1996 107 NI BB NOT_NAMED 1996-11-03 09:00:00 NR 15.9924 90.5075 main 395 395 P_____________ IO071996 15.9924 90.5075 22 -1 6 270
1996306N15097 1996 107 NI BB NOT_NAMED 1996-11-03 12:00:00 NR 16.0000 90.2000 main 427 427 O_____________ jtwc_io IO071996 16.0000 90.2000 25 -1 6 271
1996306N15097 1996 107 NI BB NOT_NAMED 1996-11-03 15:00:00 NR 16.0000 89.8575 main 459 459 P_____________ IO071996 16.0000 89.8575 25 -1 7 270
1996306N15097 1996 107 NI BB NOT_NAMED 1996-11-03 18:00:00 NR 16.0000 89.5000 main 502 502 O_____________ jtwc_io IO071996 16.0000 89.5000 25 -1 7 270
1996306N15097 1996 107 NI BB NOT_NAMED 1996-11-03 21:00:00 NR 16.0000 89.1350 main 530 514 P_____________ IO071996 16.0000 89.1350 27 -1 7 270
1996306N15097 1996 107 NI BB NOT_NAMED 1996-11-04 00:00:00 NR 16.0000 88.8000 main 514 504 O_____________ jtwc_io IO071996 16.0000 88.8000 30 -1 6 269
1996306N15097 1996 107 NI BB NOT_NAMED 1996-11-04 03:00:00 NR 15.9924 88.5425 main 499 490 P_____________ IO071996 15.9924 88.5425 32 -1 5 270
1996306N15097 1996 107 NI BB NOT_NAMED 1996-11-04 06:00:00 NR 16.0000 88.3000 main 490 467 O_____________ jtwc_io IO071996 16.0000 88.3000 35 0 5 277
1996306N15097 1996 107 NI BB NOT_NAMED 1996-11-04 09:00:00 NR 16.0575 88.0151 main 467 446 P_____________ IO071996 16.0575 88.0151 37 0 6 280
1996306N15097 1996 107 NI BB NOT_NAMED 1996-11-04 12:00:00 NR 16.1000 87.7000 main 446 431 O_____________ jtwc_io IO071996 16.1000 87.7000 40 0 5 269
1996306N15097 1996 107 NI BB NOT_NAMED 1996-11-04 15:00:00 NR 16.0460 87.4859 25 1002 newdelhi main 438 415 P___O_________ IO071996 16.0575 87.3574 45 0 16.0000 88.0000 D 25 1002 1.50000 5 259
1996306N15097 1996 107 NI BB NOT_NAMED 1996-11-04 18:00:00 NR 16.0000 87.1667 25 1002 newdelhi main 415 393 O___O_________ jtwc_io IO071996 16.0000 87.0000 50 0 16.0000 87.5000 D 25 1002 1.50000 6 265
1996306N15097 1996 107 NI BB NOT_NAMED 1996-11-04 21:00:00 NR 15.9956 86.9072 main 393 377 P___P_________ IO071996 15.9924 86.6500 55 0 15.9997 87.2500 D 25 1002 5 270
1996306N15097 1996 107 NI BB NOT_NAMED 1996-11-05 00:00:00 NR 16.0000 86.6500 25 1002 newdelhi main 377 340 O___O_________ jtwc_io IO071996 16.0000 86.3000 60 0 16.0000 87.0000 D 25 1002 1.50000 7 270
1996306N15097 1996 107 NI BB NOT_NAMED 1996-11-05 03:00:00 NR 16.0000 86.2250 30 1000 newdelhi main 340 333 P___O_________ IO071996 15.9999 85.9500 62 0 16.0000 86.5000 DD 30 1000 2.00000 6 270
1996306N15097 1996 107 NI BB NOT_NAMED 1996-11-05 06:00:00 NR 16.0000 86.0500 30 1000 newdelhi main 333 308 O___O_________ jtwc_io IO071996 16.0000 85.6000 65 1 16.0000 86.5000 DD 30 1000 2.00000 6 270
1996306N15097 1996 107 NI BB NOT_NAMED 1996-11-05 09:00:00 NR 16.0000 85.6288 35 992 newdelhi main 302 277 P___O_________ IO071996 15.9999 85.2575 70 1 16.0000 86.0000 CS 35 992 2.50000 8 270
1996306N15097 1996 107 NI BB NOT_NAMED 1996-11-05 12:00:00 NR 16.0000 85.2000 45 992 newdelhi main 277 254 O___O_________ jtwc_io IO071996 16.0000 84.9000 75 1 16.0000 85.5000 CS 45 992 3.00000 8 270
1996306N15097 1996 107 NI BB NOT_NAMED 1996-11-05 15:00:00 NR 15.9999 84.8419 main 247 232 P___P_________ IO071996 16.0001 84.4850 80 1 15.9998 85.1989 CS 45 992 6 270
1996306N15097 1996 107 NI BB NOT_NAMED 1996-11-05 18:00:00 NR 16.0000 84.5500 45 992 newdelhi main 232 219 O___O_________ jtwc_io IO071996 16.0000 84.1000 85 2 16.0000 85.0000 CS 45 992 3.00000 4 263
1996306N15097 1996 107 NI BB NOT_NAMED 1996-11-05 21:00:00 NR 15.9515 84.4243 main 219 202 P___P_________ IO071996 15.9848 83.8424 92 2 15.9183 85.0061 CS 45 992 5 270
1996306N15097 1996 107 NI BB NOT_NAMED 1996-11-06 00:00:00 NR 16.0000 84.0500 45 992 newdelhi main 202 168 O___O_________ jtwc_io IO071996 16.0000 83.6000 100 3 16.0000 84.5000 CS 45 992 3.00000 9 280
1996306N15097 1996 107 NI BB NOT_NAMED 1996-11-06 01:00:00 NR 16.0597 83.7948 55 990 newdelhi main 168 139 P___O_________ IO071996 16.0193 83.4895 102 3 16.1000 84.1000 SCS 55 990 3.50000 10 280
1996306N15097 1996 107 NI BB NOT_NAMED 1996-11-06 03:00:00 NR 16.0888 83.5250 55 990 newdelhi main 139 105 P___O_________ IO071996 16.0776 83.2500 107 3 16.1000 83.8000 SCS 55 990 3.50000 7 284
1996306N15097 1996 107 NI BB NOT_NAMED 1996-11-06 06:00:00 NR 16.2000 83.2000 65 988 newdelhi main 105 63 O___O_________ jtwc_io IO071996 16.2000 82.9000 115 4 16.2000 83.5000 SCS 65 988 4.00000 7 289
1996306N15097 1996 107 NI BB NOT_NAMED 1996-11-06 09:00:00 NR 16.3212 82.8250 77 988 newdelhi main 63 30 P___O_________ IO071996 16.3424 82.6499 115 4 16.3000 83.0000 SCS(H) 77 988 4.50000 7 290
1996306N15097 1996 107 NI BB NOT_NAMED 1996-11-06 12:00:00 NR 16.4500 82.5000 77 988 newdelhi main 24 0 O___O_________ jtwc_io IO071996 16.5000 82.4000 115 4 16.4000 82.6000 SCS(H) 77 988 4.50000 7 294
1996306N15097 1996 107 NI BB NOT_NAMED 1996-11-06 15:00:00 NR 16.5940 82.1933 main 0 0 P___P_________ IO071996 16.6349 82.0798 115 4 16.5532 82.3068 SCS(H) 66 989 7 296
1996306N15097 1996 107 NI BB NOT_NAMED 1996-11-06 18:00:00 NR 16.7500 81.8500 55 990 newdelhi main 0 0 O___O_________ jtwc_io IO071996 16.8000 81.7000 115 4 16.7000 82.0000 SCS 55 990 3.50000 8 293
1996306N15097 1996 107 NI BB NOT_NAMED 1996-11-06 21:00:00 NR 16.8948 81.4584 main 0 0 P___P_________ IO071996 17.0573 81.2876 97 3 16.7324 81.6291 SCS 10 290
1996306N15097 1996 107 NI BB NOT_NAMED 1996-11-07 00:00:00 NR 17.0857 80.8857 newdelhi main 0 0 O___O_________ jtwc_io IO071996 17.3000 80.8000 80 1 16.8000 81.0000 CS 0.00000 13 287
1996306N15097 1996 107 NI BB NOT_NAMED 1996-11-07 03:00:00 NR 17.2868 80.1283 newdelhi main 0 0 P___O_________ IO071996 17.4302 80.1924 65 1 17.0000 80.0000 DD 0.00000 14 287
1996306N15097 1996 107 NI BB NOT_NAMED 1996-11-07 06:00:00 NR 17.5000 79.4800 newdelhi main 0 0 O___O_________ jtwc_io IO071996 17.5000 79.6000 50 0 17.5000 79.0000 D 0.00000 9 286
1996306N15097 1996 107 NI BB NOT_NAMED 1996-11-07 09:00:00 NR 17.5496 79.1923 main 0 0 P_____________ IO071996 17.5496 79.1923 40 0 7 279
1996306N15097 1996 107 NI BB NOT_NAMED 1996-11-07 12:00:00 NR 17.6000 78.8000 main 0 0 O_____________ jtwc_io IO071996 17.6000 78.8000 30 -1 9 279
1996306N15097 1996 107 NI BB NOT_NAMED 1996-11-07 15:00:00 NR 17.6881 78.2903 main 0 0 P_____________ IO071996 17.6881 78.2903 25 -1 11 281
1996306N15097 1996 107 NI AS NOT_NAMED 1996-11-07 18:00:00 NR 17.8000 77.7000 main 0 O_____________ jtwc_io IO071996 17.8000 77.7000 20 -1 11 281

IBTrACS Databaseについて

本データベースは、米国NOAAが公開する1842年以降の世界の熱帯低気圧のベストトラックデータアーカイブInternational Best Track Archive for Climate Stewardship (IBTrACS)を、ウェブで閲覧しやすい形式に変換したものです。

最終更新日:2021-12-06